Bella Vista, Arkansas
Current Conditions -  °F | °C
As of 11:15 PM on Wednesday 22 Oct 2014 (Local Time) from KVBT Reporting Station
Clear Clear  
Wind Chill: 13°   Ceiling: Unl
Heat Index: 13°   Visibility: 10mi
Dew Point:   Wind: 3mph
Humidity: 77%   Direction: 170°S
Pressure: 30.18"   Gusts: NA
Location:  36.48°N, 94.25°W
Report Text: KVBT 230415Z AUTO 17003KT 10SM CLR 13/09 A3018 RMK AO1
Loading
Personal Weather Stations






























Interactive Weather Map
Tropical Storm Tracking
New forecast layout! Learn more

10-Day Weather Forecast

Advertisements
Track Severe Weather on mobile